createdAt,value
2022-08-23T00:01:53.592Z,25.80
2022-08-23T00:03:57.509Z,25.80
2022-08-23T00:05:59.224Z,25.80
2022-08-23T00:08:01.206Z,25.80
2022-08-23T00:10:04.753Z,25.80
2022-08-23T00:12:17.684Z,25.80
2022-08-23T00:14:23.019Z,25.80
2022-08-23T00:16:24.934Z,25.80
2022-08-23T00:18:26.741Z,25.80
2022-08-23T00:20:28.435Z,25.80
2022-08-23T00:22:30.232Z,25.80
2022-08-23T00:24:31.984Z,25.80
2022-08-23T00:27:07.554Z,25.80
2022-08-23T00:29:09.628Z,25.80
2022-08-23T00:31:11.292Z,25.80
2022-08-23T00:33:12.988Z,25.80
2022-08-23T00:35:26.924Z,25.80
2022-08-23T00:37:32.324Z,25.80
2022-08-23T00:39:34.365Z,25.80
2022-08-23T00:41:36.114Z,25.80
2022-08-23T00:44:00.265Z,25.80
2022-08-23T00:46:48.323Z,25.70
2022-08-23T00:48:51.269Z,25.80
2022-08-23T00:51:05.620Z,25.80
2022-08-23T00:53:14.577Z,25.80
2022-08-23T00:55:17.950Z,25.80
2022-08-23T00:57:21.131Z,25.80
2022-08-23T00:59:22.961Z,25.80
2022-08-23T01:01:25.346Z,25.80
2022-08-23T01:03:38.583Z,25.80
2022-08-23T01:05:55.692Z,25.80
2022-08-23T01:08:00.051Z,25.80
2022-08-23T01:10:09.080Z,25.80
2022-08-23T01:12:33.055Z,25.80
2022-08-23T01:15:10.138Z,25.80
2022-08-23T01:17:16.475Z,25.70
2022-08-23T01:19:31.771Z,25.70
2022-08-23T01:21:45.436Z,25.70
2022-08-23T01:23:53.484Z,25.80
2022-08-23T01:25:55.788Z,25.80
2022-08-23T01:27:58.024Z,25.80
2022-08-23T01:29:59.934Z,25.80
2022-08-23T01:32:01.687Z,25.80
2022-08-23T01:34:09.558Z,25.80
2022-08-23T01:36:16.731Z,25.70
2022-08-23T01:38:18.456Z,25.70
2022-08-23T01:40:20.501Z,25.80
2022-08-23T01:42:22.254Z,25.70
2022-08-23T01:44:24.134Z,25.70
2022-08-23T01:46:29.176Z,25.70
2022-08-23T01:48:30.903Z,25.70
2022-08-23T01:50:32.797Z,25.70
2022-08-23T01:52:36.455Z,25.70
2022-08-23T01:54:38.115Z,25.70
2022-08-23T01:56:40.803Z,25.70
2022-08-23T01:58:42.532Z,25.70
2022-08-23T02:00:44.486Z,25.70
2022-08-23T02:02:46.983Z,25.70
2022-08-23T02:04:48.745Z,25.70
2022-08-23T02:06:50.434Z,25.70
2022-08-23T02:09:04.502Z,25.70
2022-08-23T02:11:15.135Z,25.70
2022-08-23T02:13:17.249Z,25.70
2022-08-23T02:15:18.981Z,25.70
2022-08-23T02:17:22.083Z,25.70
2022-08-23T02:19:23.747Z,25.70
2022-08-23T02:21:26.361Z,25.70
2022-08-23T02:23:28.791Z,25.70
2022-08-23T02:25:30.954Z,25.70
2022-08-23T02:27:32.613Z,25.70
2022-08-23T02:29:39.213Z,25.70
2022-08-23T02:31:41.471Z,25.70
2022-08-23T02:33:43.612Z,25.70
2022-08-23T02:35:45.871Z,25.70
2022-08-23T02:37:47.525Z,25.70
2022-08-23T02:39:49.350Z,25.70
2022-08-23T02:41:51.841Z,25.70
2022-08-23T02:43:54.255Z,25.70
2022-08-23T02:45:56.016Z,25.70
2022-08-23T02:47:57.703Z,25.70
2022-08-23T02:49:59.429Z,25.70
2022-08-23T02:52:01.264Z,25.60
2022-08-23T02:54:03.421Z,25.70
2022-08-23T02:56:05.451Z,25.60
2022-08-23T02:58:14.811Z,25.60
2022-08-23T03:00:18.994Z,25.60
2022-08-23T03:02:20.854Z,25.50
2022-08-23T03:04:23.019Z,25.50
2022-08-23T03:06:26.505Z,25.50
2022-08-23T03:08:28.624Z,25.50
2022-08-23T03:10:31.103Z,25.50
2022-08-23T03:12:33.449Z,25.50
2022-08-23T03:14:35.256Z,25.50
2022-08-23T03:16:40.363Z,25.50
2022-08-23T03:18:42.532Z,25.50
2022-08-23T03:20:44.359Z,25.20
2022-08-23T03:22:49.632Z,24.70
2022-08-23T03:24:56.236Z,24.30
2022-08-23T03:26:57.886Z,24.20
2022-08-23T03:28:59.614Z,24.10
2022-08-23T03:31:01.423Z,24.00
2022-08-23T03:33:03.540Z,24.00
2022-08-23T03:35:11.031Z,23.90
2022-08-23T03:37:18.019Z,23.80
2022-08-23T03:39:19.859Z,23.70
2022-08-23T03:41:21.939Z,23.50
2022-08-23T03:43:23.728Z,23.40
2022-08-23T03:45:25.421Z,23.30
2022-08-23T03:47:27.305Z,23.20
2022-08-23T03:49:29.013Z,23.20
2022-08-23T03:51:32.055Z,23.10
2022-08-23T03:53:33.700Z,22.90
2022-08-23T03:55:42.192Z,22.90
2022-08-23T03:57:44.518Z,23.00
2022-08-23T03:59:46.203Z,22.90
2022-08-23T04:01:48.583Z,22.90
2022-08-23T04:03:50.709Z,22.80
2022-08-23T04:05:52.586Z,22.70
2022-08-23T04:07:55.052Z,22.70
2022-08-23T04:09:56.850Z,22.70
2022-08-23T04:11:58.509Z,22.70
2022-08-23T04:14:00.187Z,22.60
2022-08-23T04:16:03.334Z,22.60
2022-08-23T04:18:05.308Z,22.60
2022-08-23T04:20:08.712Z,22.40
2022-08-23T04:22:15.100Z,22.20
2022-08-23T04:24:17.872Z,22.10
2022-08-23T04:26:19.814Z,22.00
2022-08-23T04:28:22.996Z,22.10
2022-08-23T04:30:25.208Z,22.00
2022-08-23T04:32:28.568Z,22.00
2022-08-23T04:34:30.387Z,21.90
2022-08-23T04:36:36.951Z,21.90
2022-08-23T04:38:38.708Z,21.90
2022-08-23T04:41:01.258Z,21.90
2022-08-23T04:43:03.164Z,21.80
2022-08-23T04:45:05.231Z,21.80
2022-08-23T04:47:07.063Z,21.80
2022-08-23T04:49:08.724Z,21.70
2022-08-23T04:51:11.925Z,21.70
2022-08-23T04:53:13.625Z,21.80
2022-08-23T04:55:15.543Z,22.00
2022-08-23T04:57:17.217Z,22.40
2022-08-23T04:59:19.626Z,22.70
2022-08-23T05:01:21.597Z,23.00
2022-08-23T05:03:23.440Z,23.20
2022-08-23T05:05:26.920Z,23.40
2022-08-23T05:07:30.987Z,23.50
2022-08-23T05:09:44.698Z,23.70
2022-08-23T05:11:46.476Z,23.80
2022-08-23T05:13:48.599Z,23.90
2022-08-23T05:15:52.542Z,24.00
2022-08-23T05:17:54.341Z,24.10
2022-08-23T05:19:56.025Z,24.20
2022-08-23T05:21:57.716Z,24.20
2022-08-23T05:24:00.597Z,24.30
2022-08-23T05:26:05.517Z,24.30
2022-08-23T05:28:07.193Z,24.40
2022-08-23T05:30:15.239Z,24.50
2022-08-23T05:32:17.236Z,24.60
2022-08-23T05:34:22.782Z,24.60
2022-08-23T05:36:24.627Z,24.70
2022-08-23T05:38:26.744Z,24.70
2022-08-23T05:40:28.875Z,24.70
2022-08-23T05:42:30.582Z,24.70
2022-08-23T05:44:36.254Z,24.80
2022-08-23T05:46:39.214Z,24.80
2022-08-23T05:48:43.299Z,24.90
2022-08-23T05:50:45.019Z,24.90
2022-08-23T05:52:50.968Z,24.90
2022-08-23T05:54:52.949Z,24.90
2022-08-23T05:56:54.629Z,24.90
2022-08-23T05:59:00.183Z,24.90
2022-08-23T06:01:01.936Z,24.90
2022-08-23T06:03:03.921Z,25.00
2022-08-23T06:05:06.087Z,25.00
2022-08-23T06:07:09.766Z,25.00
2022-08-23T06:09:14.380Z,25.00
2022-08-23T06:11:19.215Z,25.00
2022-08-23T06:13:20.885Z,25.10
2022-08-23T06:15:22.656Z,25.10
2022-08-23T06:17:24.329Z,25.10
2022-08-23T06:19:26.027Z,25.10
2022-08-23T06:21:28.299Z,25.10
2022-08-23T06:23:30.636Z,25.10
2022-08-23T06:25:35.746Z,25.10
2022-08-23T06:27:37.412Z,25.10
2022-08-23T06:29:39.427Z,25.10
2022-08-23T06:31:49.175Z,25.10
2022-08-23T06:33:50.946Z,25.20
2022-08-23T06:36:06.247Z,25.10
2022-08-23T06:38:08.099Z,25.20
2022-08-23T06:40:10.182Z,25.20
2022-08-23T06:42:37.900Z,25.20
2022-08-23T06:44:37.259Z,25.20
2022-08-23T06:46:39.165Z,25.20
2022-08-23T06:48:42.520Z,25.20
2022-08-23T06:50:47.884Z,25.20
2022-08-23T06:52:50.684Z,25.20
2022-08-23T06:54:53.291Z,25.30
2022-08-23T06:56:55.596Z,25.30
2022-08-23T06:58:57.697Z,25.30
2022-08-23T07:01:45.327Z,25.30
2022-08-23T07:03:48.023Z,25.30
2022-08-23T07:05:49.713Z,25.30
2022-08-23T07:07:51.424Z,25.30
2022-08-23T07:09:53.378Z,25.30
2022-08-23T07:11:55.389Z,25.30
2022-08-23T07:14:00.273Z,25.30
2022-08-23T07:16:03.758Z,25.30
2022-08-23T07:18:05.651Z,25.30
2022-08-23T07:20:09.917Z,25.30
2022-08-23T07:22:11.951Z,25.30
2022-08-23T07:24:14.680Z,25.30
2022-08-23T07:26:17.619Z,25.40
2022-08-23T07:28:20.116Z,25.30
2022-08-23T07:30:21.805Z,25.40
2022-08-23T07:32:23.504Z,25.40
2022-08-23T07:34:26.114Z,25.40
2022-08-23T07:36:30.332Z,25.40
2022-08-23T07:38:32.308Z,25.40
2022-08-23T07:40:38.812Z,25.40
2022-08-23T07:42:42.175Z,25.40
2022-08-23T07:44:44.203Z,25.40
2022-08-23T07:46:47.448Z,25.40
2022-08-23T07:48:56.404Z,25.40
2022-08-23T07:51:02.181Z,25.40
2022-08-23T07:53:03.984Z,25.40
2022-08-23T07:55:07.005Z,25.40
2022-08-23T07:57:09.027Z,25.40
2022-08-23T07:59:11.353Z,25.40
2022-08-23T08:01:17.667Z,25.50
2022-08-23T08:03:19.916Z,25.50
2022-08-23T08:05:22.111Z,25.50
2022-08-23T08:07:23.962Z,25.50
2022-08-23T08:09:25.633Z,25.50
2022-08-23T08:11:34.256Z,25.50
2022-08-23T08:13:45.036Z,25.50
2022-08-23T08:15:46.767Z,25.50
2022-08-23T08:17:50.232Z,25.50
2022-08-23T08:19:51.957Z,25.50
2022-08-23T08:21:53.648Z,25.50
2022-08-23T08:23:57.512Z,25.50
2022-08-23T08:26:05.535Z,25.50
2022-08-23T08:28:10.381Z,25.50
2022-08-23T08:30:15.601Z,25.50
2022-08-23T08:32:17.762Z,25.50
2022-08-23T08:34:20.161Z,25.50
2022-08-23T08:36:38.863Z,25.50
2022-08-23T08:38:48.482Z,25.50
2022-08-23T08:41:16.387Z,25.50
2022-08-23T08:43:36.683Z,25.50
2022-08-23T08:46:07.798Z,25.60
2022-08-23T08:48:13.728Z,25.60
2022-08-23T08:50:37.511Z,25.60
2022-08-23T08:52:44.854Z,25.60
2022-08-23T08:54:48.844Z,25.60
2022-08-23T08:56:57.882Z,25.60
2022-08-23T08:59:03.731Z,25.60
2022-08-23T09:01:05.595Z,25.60
2022-08-23T09:03:15.617Z,25.60
2022-08-23T09:05:26.812Z,25.70
2022-08-23T09:07:53.714Z,25.70
2022-08-23T09:10:25.216Z,25.70
2022-08-23T09:12:42.168Z,25.70
2022-08-23T09:14:58.443Z,25.70
2022-08-23T09:17:25.051Z,25.70
2022-08-23T09:19:26.884Z,25.70
2022-08-23T09:21:34.229Z,25.80
2022-08-23T09:23:40.997Z,25.80
2022-08-23T09:25:54.743Z,25.80
2022-08-23T09:27:56.682Z,25.80
2022-08-23T09:30:01.256Z,25.80
2022-08-23T09:32:25.559Z,25.80
2022-08-23T09:34:34.997Z,25.80
2022-08-23T09:36:39.086Z,25.80
2022-08-23T09:38:52.834Z,25.80
2022-08-23T09:40:54.517Z,25.80
2022-08-23T09:43:13.150Z,25.80
2022-08-23T09:45:50.143Z,25.80
2022-08-23T09:47:51.851Z,25.80
2022-08-23T09:49:53.520Z,25.80
2022-08-23T09:51:58.689Z,25.80
2022-08-23T09:54:09.296Z,25.80
2022-08-23T09:56:16.449Z,25.80
2022-08-23T09:58:40.576Z,25.90
2022-08-23T10:00:43.369Z,25.80
2022-08-23T10:02:45.083Z,25.80
2022-08-23T10:04:57.880Z,25.80
2022-08-23T10:06:59.600Z,25.90
2022-08-23T10:09:05.430Z,25.90
2022-08-23T10:11:19.067Z,25.90
2022-08-23T10:13:23.205Z,25.90
2022-08-23T10:15:55.758Z,25.90
2022-08-23T10:18:07.928Z,25.90
2022-08-23T10:20:29.276Z,25.90
2022-08-23T10:22:42.783Z,25.90
2022-08-23T10:24:52.093Z,25.90
2022-08-23T10:27:31.327Z,25.90
2022-08-23T10:29:48.553Z,25.90
2022-08-23T10:32:15.168Z,26.00
2022-08-23T10:34:31.616Z,26.00
2022-08-23T10:36:51.577Z,26.00
2022-08-23T10:39:01.628Z,26.00
2022-08-23T10:41:14.680Z,26.00
2022-08-23T10:43:28.452Z,26.10
2022-08-23T10:45:34.920Z,26.00
2022-08-23T10:47:44.019Z,26.10
2022-08-23T10:49:52.008Z,26.10
2022-08-23T10:51:55.987Z,26.10
2022-08-23T10:54:06.227Z,26.10
2022-08-23T10:56:08.127Z,26.10
2022-08-23T10:58:19.138Z,26.10
2022-08-23T11:00:22.699Z,26.10
2022-08-23T11:03:09.405Z,26.20
2022-08-23T11:05:22.733Z,26.20
2022-08-23T11:07:29.248Z,26.10
2022-08-23T11:09:38.628Z,26.20
2022-08-23T11:11:45.201Z,26.20
2022-08-23T11:13:53.135Z,26.20
2022-08-23T11:16:00.733Z,26.20
2022-08-23T11:18:05.705Z,26.20
2022-08-23T11:20:13.138Z,26.20
2022-08-23T11:22:27.819Z,26.20
2022-08-23T11:24:32.443Z,26.20
2022-08-23T11:26:37.724Z,26.20
2022-08-23T11:28:46.086Z,26.20
2022-08-23T11:30:50.818Z,26.20
2022-08-23T11:32:52.608Z,26.20
2022-08-23T11:35:13.529Z,26.20
2022-08-23T11:37:23.946Z,26.30
2022-08-23T11:39:26.943Z,26.30
2022-08-23T11:41:30.411Z,26.30
2022-08-23T11:43:38.870Z,26.30
2022-08-23T11:45:46.649Z,26.30
2022-08-23T11:48:13.224Z,26.30
2022-08-23T11:50:31.163Z,26.30
2022-08-23T11:53:08.078Z,26.30
2022-08-23T11:55:24.939Z,26.40
2022-08-23T11:57:54.465Z,26.40
2022-08-23T12:00:14.868Z,26.40
2022-08-23T12:02:48.094Z,26.40
2022-08-23T12:04:53.592Z,26.40
2022-08-23T12:07:01.816Z,26.40
2022-08-23T12:09:14.305Z,26.40
2022-08-23T12:11:19.967Z,26.40
2022-08-23T12:13:21.925Z,26.40
2022-08-23T12:16:02.030Z,26.40
2022-08-23T12:18:11.972Z,26.40
2022-08-23T12:20:26.565Z,26.40
2022-08-23T12:22:31.082Z,26.40
2022-08-23T12:24:41.623Z,26.40
2022-08-23T12:27:02.689Z,26.50
2022-08-23T12:29:09.272Z,26.50
2022-08-23T12:31:30.017Z,26.50
2022-08-23T12:33:49.806Z,26.50
2022-08-23T12:36:20.660Z,26.50
2022-08-23T12:38:38.999Z,26.50
2022-08-23T12:40:44.082Z,26.50
2022-08-23T12:42:46.449Z,26.50
2022-08-23T12:45:00.078Z,26.50
2022-08-23T12:47:20.155Z,26.50
2022-08-23T12:49:32.603Z,26.50
2022-08-23T12:51:50.655Z,26.50
2022-08-23T12:53:52.474Z,26.50
2022-08-23T12:56:15.549Z,26.50
2022-08-23T12:58:28.702Z,26.50
2022-08-23T13:00:38.268Z,26.50
2022-08-23T13:03:05.490Z,26.50
2022-08-23T13:05:22.302Z,26.60
2022-08-23T13:07:26.524Z,26.60
2022-08-23T13:09:33.205Z,26.60
2022-08-23T13:11:37.311Z,26.60
2022-08-23T13:13:42.330Z,26.60
2022-08-23T13:15:53.325Z,26.60
2022-08-23T13:18:01.301Z,26.60
2022-08-23T13:20:04.039Z,26.60
2022-08-23T13:22:22.296Z,26.60
2022-08-23T13:24:29.954Z,26.60
2022-08-23T13:26:42.507Z,26.60
2022-08-23T13:29:20.550Z,26.60
2022-08-23T13:31:22.272Z,26.60
2022-08-23T13:33:24.155Z,26.70
2022-08-23T13:35:38.402Z,26.70
2022-08-23T13:37:46.003Z,26.70
2022-08-23T13:39:51.614Z,26.70
2022-08-23T13:41:53.621Z,26.70
2022-08-23T13:43:55.419Z,26.70
2022-08-23T13:46:00.270Z,26.70
2022-08-23T13:48:10.510Z,26.70
2022-08-23T13:50:17.588Z,26.70
2022-08-23T13:52:45.825Z,26.70
2022-08-23T13:54:41.181Z,26.70
2022-08-23T13:56:51.560Z,26.70
2022-08-23T13:59:02.471Z,26.70
2022-08-23T14:01:05.023Z,26.70
2022-08-23T14:03:07.833Z,26.70
2022-08-23T14:05:10.220Z,26.70
2022-08-23T14:07:12.722Z,26.70
2022-08-23T14:09:15.513Z,26.70
2022-08-23T14:11:17.735Z,26.80
2022-08-23T14:13:24.314Z,26.80
2022-08-23T14:17:51.557Z,26.70
2022-08-23T14:22:17.679Z,26.80
2022-08-23T14:24:19.846Z,26.80
2022-08-23T14:26:23.199Z,26.80
2022-08-23T14:28:29.463Z,26.80
2022-08-23T14:30:34.121Z,26.80
2022-08-23T14:32:37.850Z,26.80
2022-08-23T14:34:39.642Z,26.80
2022-08-23T14:36:42.005Z,26.80
2022-08-23T14:38:43.782Z,26.80
2022-08-23T14:40:53.932Z,26.80
2022-08-23T14:42:55.722Z,26.90
2022-08-23T14:44:57.784Z,26.90
2022-08-23T14:46:59.481Z,26.80
2022-08-23T14:49:01.148Z,26.90
2022-08-23T14:51:04.098Z,26.90
2022-08-23T14:53:07.472Z,26.90
2022-08-23T14:55:10.127Z,26.90
2022-08-23T14:57:12.106Z,26.90
2022-08-23T14:59:14.412Z,26.90
2022-08-23T15:01:17.343Z,26.90
2022-08-23T15:03:27.744Z,26.90
2022-08-23T15:05:29.852Z,26.90
2022-08-23T15:07:31.607Z,26.90
2022-08-23T15:09:33.812Z,26.90
2022-08-23T15:14:00.148Z,26.90
2022-08-23T15:16:05.109Z,26.90
2022-08-23T15:18:09.257Z,26.90
2022-08-23T15:20:11.508Z,26.90
2022-08-23T15:22:15.853Z,26.90
2022-08-23T15:24:23.019Z,26.90
2022-08-23T15:26:28.688Z,26.90
2022-08-23T15:28:31.023Z,26.90
2022-08-23T15:30:33.450Z,26.90
2022-08-23T15:32:35.547Z,26.90
2022-08-23T15:34:40.219Z,27.00
2022-08-23T15:36:48.334Z,27.00
2022-08-23T15:38:50.228Z,27.00
2022-08-23T15:40:53.518Z,26.90
2022-08-23T15:42:55.293Z,27.00
2022-08-23T15:44:56.970Z,27.00
2022-08-23T15:46:58.689Z,27.00
2022-08-23T15:49:12.367Z,26.90
2022-08-23T15:51:15.171Z,27.00
2022-08-23T15:53:17.000Z,27.00
2022-08-23T15:55:19.942Z,27.00
2022-08-23T15:57:25.607Z,27.00
2022-08-23T15:59:30.818Z,27.00
2022-08-23T16:01:33.834Z,27.00
2022-08-23T16:03:38.011Z,27.00
2022-08-23T16:05:41.373Z,27.00
2022-08-23T16:07:43.526Z,27.00
2022-08-23T16:09:45.460Z,27.00
2022-08-23T16:11:47.479Z,27.00
2022-08-23T16:13:50.096Z,27.00
2022-08-23T16:15:55.614Z,27.00
2022-08-23T16:17:57.404Z,27.00
2022-08-23T16:19:59.054Z,27.00
2022-08-23T16:22:01.153Z,27.00
2022-08-23T16:24:03.742Z,27.00
2022-08-23T16:26:09.488Z,27.10
2022-08-23T16:28:12.029Z,27.10
2022-08-23T16:30:14.679Z,27.10
2022-08-23T16:32:16.351Z,27.10
2022-08-23T16:34:19.709Z,27.10
2022-08-23T16:36:21.446Z,27.10
2022-08-23T16:38:23.094Z,27.10
2022-08-23T16:40:25.013Z,27.10
2022-08-23T16:42:26.767Z,27.20
2022-08-23T16:44:29.132Z,27.20
2022-08-23T16:46:30.908Z,27.20
2022-08-23T16:48:34.042Z,27.20
2022-08-23T16:50:35.696Z,27.20
2022-08-23T16:52:37.425Z,27.30
2022-08-23T16:54:39.467Z,27.30
2022-08-23T16:56:42.442Z,27.30
2022-08-23T16:58:45.031Z,27.30
2022-08-23T17:00:47.224Z,27.40
2022-08-23T17:02:49.088Z,27.40
2022-08-23T17:04:52.664Z,27.40
2022-08-23T17:06:55.387Z,27.40
2022-08-23T17:08:57.075Z,27.40
2022-08-23T17:11:02.960Z,27.40
2022-08-23T17:13:07.319Z,27.40
2022-08-23T17:15:11.163Z,27.40
2022-08-23T17:17:13.484Z,27.40
2022-08-23T17:19:15.200Z,27.40
2022-08-23T17:21:16.978Z,27.40
2022-08-23T17:23:18.700Z,27.50
2022-08-23T17:25:20.741Z,27.40
2022-08-23T17:27:22.430Z,27.50
2022-08-23T17:29:24.160Z,27.50
2022-08-23T17:31:27.062Z,27.50
2022-08-23T17:33:28.910Z,27.50
2022-08-23T17:35:34.209Z,27.50
2022-08-23T17:37:37.390Z,27.40
2022-08-23T17:39:39.505Z,27.40
2022-08-23T17:41:45.397Z,27.40
2022-08-23T17:43:47.788Z,27.40
2022-08-23T17:45:51.180Z,27.40
2022-08-23T17:47:53.079Z,27.40
2022-08-23T17:49:55.154Z,27.40
2022-08-23T17:51:56.841Z,27.40
2022-08-23T17:53:58.892Z,27.40
2022-08-23T17:56:01.957Z,27.40
2022-08-23T17:58:08.314Z,27.40
2022-08-23T18:00:13.352Z,27.40
2022-08-23T18:02:15.355Z,27.40
2022-08-23T18:04:17.130Z,27.40
2022-08-23T18:06:19.788Z,27.50
2022-08-23T18:08:21.525Z,27.50
2022-08-23T18:10:25.304Z,27.50
2022-08-23T18:12:27.000Z,27.50
2022-08-23T18:14:28.891Z,27.50
2022-08-23T18:16:35.335Z,27.50
2022-08-23T18:18:37.889Z,27.50
2022-08-23T18:20:39.664Z,27.40
2022-08-23T18:22:41.484Z,27.40
2022-08-23T18:24:43.162Z,27.40
2022-08-23T18:27:03.812Z,27.40
2022-08-23T18:29:06.703Z,27.40
2022-08-23T18:31:08.367Z,27.40
2022-08-23T18:33:12.497Z,27.40
2022-08-23T18:35:14.943Z,27.40
2022-08-23T18:37:17.145Z,27.50
2022-08-23T18:39:31.733Z,27.50
2022-08-23T18:41:34.074Z,27.40
2022-08-23T18:43:37.651Z,27.40
2022-08-23T18:45:39.610Z,27.40
2022-08-23T18:47:41.325Z,27.40
2022-08-23T18:49:43.237Z,27.40
2022-08-23T18:51:44.997Z,27.40
2022-08-23T18:53:47.120Z,27.30
2022-08-23T18:55:50.071Z,27.30
2022-08-23T18:57:51.869Z,27.30
2022-08-23T18:59:53.556Z,27.20
2022-08-23T19:01:56.094Z,27.20
2022-08-23T19:03:59.711Z,27.10
2022-08-23T19:06:01.384Z,27.10
2022-08-23T19:08:03.971Z,27.10
2022-08-23T19:10:06.156Z,27.10
2022-08-23T19:12:08.363Z,27.10
2022-08-23T19:14:12.470Z,27.10
2022-08-23T19:16:15.703Z,27.10
2022-08-23T19:18:17.467Z,27.00
2022-08-23T19:20:20.499Z,27.00
2022-08-23T19:22:22.375Z,27.10
2022-08-23T19:24:24.667Z,27.00
2022-08-23T19:26:31.823Z,27.00
2022-08-23T19:28:33.640Z,27.00
2022-08-23T19:30:35.567Z,27.00
2022-08-23T19:32:39.436Z,27.00
2022-08-23T19:34:42.399Z,27.00
2022-08-23T19:36:47.526Z,27.00
2022-08-23T19:38:50.590Z,27.00
2022-08-23T19:40:52.244Z,26.90
2022-08-23T19:42:54.833Z,26.90
2022-08-23T19:44:56.487Z,26.80
2022-08-23T19:46:58.700Z,26.70
2022-08-23T19:49:00.369Z,26.60
2022-08-23T19:51:02.119Z,26.60
2022-08-23T19:53:04.613Z,26.60
2022-08-23T19:55:07.685Z,26.50
2022-08-23T19:57:09.972Z,26.40
2022-08-23T19:59:14.974Z,26.40
2022-08-23T20:01:16.653Z,26.40
2022-08-23T20:03:18.392Z,26.40
2022-08-23T20:05:20.472Z,26.30
2022-08-23T20:07:22.182Z,26.20
2022-08-23T20:09:24.881Z,26.20
2022-08-23T20:11:27.821Z,26.10
2022-08-23T20:13:29.985Z,26.00
2022-08-23T20:15:31.710Z,25.90
2022-08-23T20:17:33.417Z,25.90
2022-08-23T20:19:35.842Z,25.80
2022-08-23T20:21:38.748Z,25.70
2022-08-23T20:23:59.160Z,25.70
2022-08-23T20:26:00.809Z,25.70
2022-08-23T20:28:07.578Z,25.60
2022-08-23T20:30:11.225Z,25.50
2022-08-23T20:32:12.910Z,25.50
2022-08-23T20:34:14.608Z,25.40
2022-08-23T20:36:16.346Z,25.40
2022-08-23T20:38:32.947Z,25.40
2022-08-23T20:40:35.742Z,25.40
2022-08-23T20:42:38.356Z,25.40
2022-08-23T20:44:40.072Z,25.40
2022-08-23T20:46:43.995Z,25.40
2022-08-23T20:48:45.784Z,25.40
2022-08-23T20:50:47.446Z,25.30
2022-08-23T20:52:49.169Z,25.20
2022-08-23T20:54:52.065Z,25.20
2022-08-23T20:56:53.781Z,25.00
2022-08-23T20:58:56.337Z,25.00
2022-08-23T21:00:58.739Z,25.00
2022-08-23T21:03:00.612Z,25.10
2022-08-23T21:05:04.723Z,25.20
2022-08-23T21:07:08.737Z,25.20
2022-08-23T21:09:12.212Z,25.20
2022-08-23T21:11:13.943Z,25.10
2022-08-23T21:13:15.614Z,25.10
2022-08-23T21:15:17.506Z,25.20
2022-08-23T21:17:19.167Z,25.20
2022-08-23T21:19:20.878Z,25.00
2022-08-23T21:21:26.568Z,25.00
2022-08-23T21:23:28.391Z,25.10
2022-08-23T21:25:30.076Z,25.00
2022-08-23T21:27:31.855Z,24.90
2022-08-23T21:29:33.568Z,24.80
2022-08-23T21:31:36.070Z,24.80
2022-08-23T21:33:40.384Z,24.90
2022-08-23T21:35:42.273Z,24.90
2022-08-23T21:37:44.064Z,24.90
2022-08-23T21:39:46.396Z,24.80
2022-08-23T21:41:48.848Z,24.80
2022-08-23T21:43:50.628Z,24.70
2022-08-23T21:45:52.577Z,24.70
2022-08-23T21:47:55.443Z,24.50
2022-08-23T21:49:57.116Z,24.50
2022-08-23T21:51:59.008Z,24.40
2022-08-23T21:54:01.189Z,24.40
2022-08-23T21:56:03.032Z,24.40
2022-08-23T21:58:05.386Z,24.30
2022-08-23T22:00:11.606Z,24.30
2022-08-23T22:02:13.388Z,24.30
2022-08-23T22:04:16.304Z,24.10
2022-08-23T22:06:19.481Z,24.20
2022-08-23T22:08:21.182Z,24.30
2022-08-23T22:10:23.188Z,24.30
2022-08-23T22:12:25.295Z,24.30
2022-08-23T22:14:31.230Z,24.20
2022-08-23T22:16:33.398Z,24.10
2022-08-23T22:18:36.026Z,24.00
2022-08-23T22:20:38.319Z,23.90
2022-08-23T22:22:40.144Z,23.80
2022-08-23T22:24:41.977Z,23.80
2022-08-23T22:26:44.017Z,23.70
2022-08-23T22:28:46.392Z,23.70
2022-08-23T22:30:48.229Z,23.70
2022-08-23T22:32:49.949Z,23.70
2022-08-23T22:34:51.993Z,23.70
2022-08-23T22:36:53.690Z,23.70
2022-08-23T22:38:56.230Z,23.70
2022-08-23T22:40:58.239Z,23.70
2022-08-23T22:42:59.995Z,23.70
2022-08-23T22:45:04.604Z,23.80
2022-08-23T22:47:06.320Z,23.90
2022-08-23T22:49:09.443Z,24.10
2022-08-23T22:51:19.556Z,24.20
2022-08-23T22:53:21.223Z,24.30
2022-08-23T22:55:22.996Z,24.40
2022-08-23T22:57:24.661Z,24.50
2022-08-23T22:59:32.849Z,24.60
2022-08-23T23:01:38.764Z,24.70
2022-08-23T23:03:41.943Z,24.70
2022-08-23T23:05:44.121Z,24.80
2022-08-23T23:08:04.434Z,24.90
2022-08-23T23:10:06.555Z,24.80
2022-08-23T23:12:08.286Z,24.80
2022-08-23T23:14:11.176Z,24.90
2022-08-23T23:16:15.941Z,24.90
2022-08-23T23:18:19.164Z,24.90
2022-08-23T23:20:39.812Z,24.90
2022-08-23T23:22:44.224Z,24.90
2022-08-23T23:24:45.994Z,24.90
2022-08-23T23:26:48.221Z,24.90
2022-08-23T23:28:49.896Z,24.90
2022-08-23T23:30:53.535Z,24.90
2022-08-23T23:32:56.508Z,24.90
2022-08-23T23:34:58.183Z,24.90
2022-08-23T23:37:02.575Z,24.90
2022-08-23T23:39:08.453Z,24.90
2022-08-23T23:41:10.841Z,24.80
2022-08-23T23:43:13.094Z,24.90
2022-08-23T23:45:16.086Z,24.90
2022-08-23T23:47:17.823Z,24.90
2022-08-23T23:49:25.701Z,24.90
2022-08-23T23:51:34.943Z,24.90
2022-08-23T23:53:38.040Z,24.90
2022-08-23T23:55:42.547Z,24.90
2022-08-23T23:57:45.169Z,24.90
2022-08-23T23:59:46.892Z,25.00
